Time;durP1;ratioP1;P1;durP2;ratioP2;P2;SDS_P1;SDS_P2;PMS_P1;PMS_P2;Temp;Humidity;BMP_temperature;BMP_pressure;BME280_temperature;BME280_humidity;BME280_pressure;Samples;Min_cycle;Max_cycle;Signal;HPM_P1;HPM_P2
2022/03/05 00:01:31;;;;;;;1999.90;999.90;;;1.90;99.90;;;;;;5033928;28;20451;-68
2022/03/05 00:03:58;;;;;;;1999.90;999.90;;;1.90;99.90;;;;;;5034816;28;20499;-69
2022/03/05 00:06:25;;;;;;;1999.90;999.90;;;1.90;99.90;;;;;;5034770;28;20466;-70
2022/03/05 00:08:52;;;;;;;1999.90;999.90;;;1.90;99.90;;;;;;5034921;28;20447;-70
2022/03/05 00:11:18;;;;;;;1999.90;999.90;;;1.90;99.90;;;;;;5033927;28;20820;-69
2022/03/05 00:13:46;;;;;;;1999.90;999.90;;;1.90;99.90;;;;;;5034746;28;20505;-70
2022/03/05 00:16:13;;;;;;;1999.90;999.90;;;1.90;99.90;;;;;;5034296;28;20897;-70
2022/03/05 00:18:40;;;;;;;1999.90;999.90;;;2.00;99.90;;;;;;5034642;28;20823;-70
2022/03/05 00:21:06;;;;;;;1999.90;999.90;;;2.00;99.90;;;;;;5033979;28;20451;-70
2022/03/05 00:23:33;;;;;;;1999.90;999.90;;;1.90;99.90;;;;;;5034800;28;20478;-69
2022/03/05 00:26:00;;;;;;;1999.90;999.90;;;1.90;99.90;;;;;;5034405;28;20467;-69
2022/03/05 00:28:27;;;;;;;1999.90;999.90;;;1.90;99.90;;;;;;5034356;28;20834;-69
2022/03/05 00:30:58;;;;;;;1999.90;999.90;;;1.80;99.90;;;;;;5033774;28;20859;-70
2022/03/05 00:33:24;;;;;;;1999.90;999.90;;;1.80;99.90;;;;;;5034222;28;20550;-70
2022/03/05 00:35:51;;;;;;;1999.90;999.90;;;1.70;99.90;;;;;;5033939;28;20906;-70
2022/03/05 00:38:18;;;;;;;1999.90;999.90;;;1.70;99.90;;;;;;5034444;28;20459;-70
2022/03/05 00:40:46;;;;;;;1999.90;999.90;;;1.70;99.90;;;;;;5033943;28;20439;-67
2022/03/05 00:43:13;;;;;;;1999.90;999.90;;;1.70;99.90;;;;;;5034525;28;20451;-70
2022/03/05 00:45:40;;;;;;;1999.90;999.90;;;1.70;99.90;;;;;;5062434;22;20497;-68
2022/03/05 00:48:08;;;;;;;1999.90;999.90;;;1.60;99.90;;;;;;5045295;28;21032;-69
2022/03/05 00:50:35;;;;;;;1999.90;999.90;;;1.60;99.90;;;;;;5043583;28;20446;-68
2022/03/05 00:53:01;;;;;;;1999.90;999.90;;;1.60;99.90;;;;;;5044340;28;20447;-69
2022/03/05 00:55:28;;;;;;;1999.90;999.90;;;1.60;99.90;;;;;;5052850;28;20454;-70
2022/03/05 00:57:55;;;;;;;1999.90;999.90;;;1.60;99.90;;;;;;5063685;28;20446;-68
2022/03/05 01:00:22;;;;;;;1999.90;999.90;;;1.60;99.90;;;;;;5062596;28;20445;-70
2022/03/05 01:02:48;;;;;;;1999.90;999.90;;;1.60;99.90;;;;;;5064339;28;20582;-68
2022/03/05 01:05:16;;;;;;;1999.90;999.90;;;1.60;99.90;;;;;;5064010;28;20496;-69
2022/03/05 01:07:43;;;;;;;1999.90;999.90;;;1.50;99.90;;;;;;5063391;28;20442;-68
2022/03/05 01:10:10;;;;;;;1999.90;999.90;;;1.50;99.90;;;;;;5063707;28;20446;-67
2022/03/05 01:12:37;;;;;;;1999.90;999.90;;;1.40;99.90;;;;;;5063633;28;20503;-68
2022/03/05 01:15:06;;;;;;;1999.90;999.90;;;1.40;99.90;;;;;;5063086;28;20498;-68
2022/03/05 01:17:32;;;;;;;1999.90;999.90;;;1.40;99.90;;;;;;5063255;28;20493;-69
2022/03/05 01:19:59;;;;;;;1999.90;999.90;;;1.40;99.90;;;;;;5063919;28;20453;-68
2022/03/05 01:22:27;;;;;;;1999.90;999.90;;;1.30;99.90;;;;;;5063301;28;20457;-70
2022/03/05 01:24:54;;;;;;;1999.90;999.90;;;1.30;99.90;;;;;;5062887;28;20489;-70
2022/03/05 01:27:22;;;;;;;1999.90;999.90;;;1.30;99.90;;;;;;5063671;28;20449;-68
2022/03/05 01:29:49;;;;;;;1999.90;999.90;;;1.30;99.90;;;;;;5063681;28;20461;-68
2022/03/05 01:32:15;;;;;;;1999.90;999.90;;;1.30;99.90;;;;;;5063769;28;20819;-69
2022/03/05 01:34:42;;;;;;;1999.90;999.90;;;1.20;99.90;;;;;;5063033;28;20438;-67
2022/03/05 01:37:09;;;;;;;1999.90;999.90;;;1.50;99.90;;;;;;5063052;28;20449;-69
2022/03/05 01:39:38;;;;;;;1999.90;999.90;;;1.20;99.90;;;;;;5063540;28;20477;-65
2022/03/05 01:42:05;;;;;;;1999.90;999.90;;;1.10;99.90;;;;;;5062076;28;20512;-67
2022/03/05 01:44:32;;;;;;;1999.90;999.90;;;1.00;99.90;;;;;;5063515;28;20485;-69
2022/03/05 01:47:02;;;;;;;1999.90;999.90;;;1.00;99.90;;;;;;5061731;28;20981;-69
2022/03/05 01:49:29;;;;;;;1999.90;999.90;;;1.00;99.90;;;;;;5064393;28;20552;-68
2022/03/05 01:51:56;;;;;;;1999.90;999.90;;;1.00;99.90;;;;;;5063407;28;22074;-68
2022/03/05 01:54:24;;;;;;;1999.90;999.90;;;1.00;99.90;;;;;;5062638;28;20445;-68
2022/03/05 01:56:52;;;;;;;1999.90;999.90;;;0.90;99.90;;;;;;5063301;28;20475;-67
2022/03/05 01:59:19;;;;;;;1999.90;999.90;;;0.90;99.90;;;;;;5061939;28;21008;-70
2022/03/05 02:01:46;;;;;;;1999.90;999.90;;;0.90;99.90;;;;;;5063096;28;20864;-72
2022/03/05 02:04:12;;;;;;;1999.90;999.90;;;0.80;99.90;;;;;;5062560;28;20475;-67
2022/03/05 02:06:39;;;;;;;1999.90;999.90;;;0.80;99.90;;;;;;5062291;28;20876;-68
2022/03/05 02:09:06;;;;;;;1999.90;999.90;;;0.80;99.90;;;;;;5063707;28;20449;-68
2022/03/05 02:11:33;;;;;;;1999.90;999.90;;;0.70;99.90;;;;;;5062268;28;20449;-67
2022/03/05 02:14:01;;;;;;;1999.90;999.90;;;0.60;99.90;;;;;;5062789;28;20454;-67
2022/03/05 02:16:29;;;;;;;1999.90;999.90;;;0.60;99.90;;;;;;5061999;28;20466;-68
2022/03/05 02:18:56;;;;;;;1999.90;999.90;;;0.50;99.90;;;;;;5062700;28;20456;-69
2022/03/05 02:21:26;;;;;;;1999.90;999.90;;;0.50;99.90;;;;;;5063264;28;20442;-67
2022/03/05 02:23:54;;;;;;;1999.90;999.90;;;0.50;99.90;;;;;;5062850;28;20449;-69
2022/03/05 02:26:22;;;;;;;1999.90;999.90;;;0.40;99.90;;;;;;5062725;28;20535;-68
2022/03/05 02:28:49;;;;;;;1999.90;999.90;;;0.40;99.90;;;;;;5062841;28;20473;-68
2022/03/05 02:31:16;;;;;;;1999.90;999.90;;;0.30;99.90;;;;;;5062544;28;20475;-67
2022/03/05 02:33:43;;;;;;;1999.90;999.90;;;0.30;99.90;;;;;;5063796;28;20445;-68
2022/03/05 02:36:09;;;;;;;1999.90;999.90;;;0.60;99.90;;;;;;5061857;28;20982;-69
2022/03/05 02:38:38;;;;;;;1999.90;999.90;;;0.70;99.90;;;;;;5061843;28;20475;-67
2022/03/05 02:41:05;;;;;;;1999.90;999.90;;;0.40;99.90;;;;;;5062036;28;20452;-68
2022/03/05 02:43:31;;;;;;;1999.90;999.90;;;0.40;99.90;;;;;;5063316;28;20443;-70
2022/03/05 02:45:58;;;;;;;1999.90;999.90;;;0.30;99.90;;;;;;5063158;28;20485;-67
2022/03/05 02:48:25;;;;;;;1999.90;999.90;;;0.30;99.90;;;;;;5062006;28;20454;-69
2022/03/05 02:50:52;;;;;;;1999.90;999.90;;;0.30;99.90;;;;;;5062318;28;20477;-68
2022/03/05 02:53:19;;;;;;;1999.90;999.90;;;0.30;99.90;;;;;;5063463;28;20490;-70
2022/03/05 02:55:48;;;;;;;1999.90;999.90;;;0.30;99.90;;;;;;5062607;28;20462;-68
2022/03/05 02:58:15;;;;;;;1999.90;999.90;;;0.20;99.90;;;;;;5061220;28;20461;-67
2022/03/05 03:00:42;;;;;;;1999.90;999.90;;;0.30;99.90;;;;;;5063441;28;20461;-68
2022/03/05 03:03:09;;;;;;;1999.90;999.90;;;0.30;99.90;;;;;;5066403;28;20823;-67
2022/03/05 03:05:35;;;;;;;1999.90;999.90;;;0.30;99.90;;;;;;5055800;28;20502;-68
2022/03/05 03:08:02;;;;;;;1999.90;999.90;;;0.30;99.90;;;;;;5058176;28;20856;-67
2022/03/05 03:10:29;;;;;;;1999.90;999.90;;;0.30;99.90;;;;;;5055568;28;20474;-69
2022/03/05 03:12:58;;;;;;;1999.90;999.90;;;0.30;99.90;;;;;;5060066;28;20502;-72
2022/03/05 03:15:26;;;;;;;1999.90;999.90;;;0.30;99.90;;;;;;5059203;28;20485;-69
2022/03/05 03:17:53;;;;;;;1999.90;999.90;;;0.30;99.90;;;;;;5059575;28;20961;-69
2022/03/05 03:20:25;;;;;;;1999.90;999.90;;;0.30;99.90;;;;;;5062832;28;20442;-68
2022/03/05 03:22:53;;;;;;;1999.90;999.90;;;0.30;99.90;;;;;;5060699;28;20439;-67
2022/03/05 03:25:20;;;;;;;1999.90;999.90;;;0.20;99.90;;;;;;5059636;28;20504;-67
2022/03/05 03:27:47;;;;;;;1999.90;999.90;;;0.20;99.90;;;;;;5063370;28;20449;-68
2022/03/05 03:30:15;;;;;;;1999.90;999.90;;;0.20;99.90;;;;;;5061625;28;20504;-66
2022/03/05 03:32:43;;;;;;;1999.90;999.90;;;0.20;99.90;;;;;;5061420;28;20453;-68
2022/03/05 03:35:11;;;;;;;1999.90;999.90;;;0.20;99.90;;;;;;5061402;28;20462;-68
2022/03/05 03:37:39;;;;;;;1999.90;999.90;;;0.20;99.90;;;;;;5061682;28;20496;-70
2022/03/05 03:40:08;;;;;;;1999.90;999.90;;;0.10;99.90;;;;;;5060909;28;20458;-69
2022/03/05 03:42:35;;;;;;;1999.90;999.90;;;0.00;99.90;;;;;;5061526;28;20443;-69
2022/03/05 03:45:03;;;;;;;1999.90;999.90;;;-0.10;99.90;;;;;;5061714;28;20555;-68
2022/03/05 03:47:31;;;;;;;1999.90;999.90;;;-0.10;99.90;;;;;;5061883;28;20446;-69
2022/03/05 03:49:58;;;;;;;1999.90;999.90;;;-0.20;99.90;;;;;;5061619;28;20450;-68
2022/03/05 03:52:25;;;;;;;1999.90;999.90;;;-0.20;99.90;;;;;;5061433;28;20449;-68
2022/03/05 03:54:52;;;;;;;1999.90;999.90;;;-0.20;99.90;;;;;;5062325;28;20519;-67
2022/03/05 03:57:19;;;;;;;1999.90;999.90;;;-0.20;99.90;;;;;;5063389;28;20457;-66
2022/03/05 03:59:47;;;;;;;1999.90;999.90;;;0.00;99.90;;;;;;5062026;28;20446;-67
2022/03/05 04:02:14;;;;;;;1999.90;999.90;;;-0.30;99.90;;;;;;5061368;28;20509;-65
2022/03/05 04:04:42;;;;;;;1999.90;999.90;;;-0.50;99.90;;;;;;5063265;28;20564;-66
2022/03/05 04:09:54;;;;;;;1999.90;999.90;;;-0.50;99.90;;;;;;5062938;28;20926;-67
2022/03/05 04:12:21;;;;;;;1999.90;999.90;;;-0.60;99.90;;;;;;5065346;28;20460;-66
2022/03/05 04:14:48;;;;;;;1999.90;999.90;;;-0.70;99.90;;;;;;5066145;28;20476;-67
2022/03/05 04:17:15;;;;;;;1999.90;999.90;;;-0.60;99.90;;;;;;5066738;28;20454;-67
2022/03/05 04:19:43;;;;;;;1999.90;999.90;;;-0.60;99.90;;;;;;5065323;28;20973;-69
2022/03/05 04:22:10;;;;;;;1999.90;999.90;;;-0.60;99.90;;;;;;5064363;28;20879;-68
2022/03/05 04:24:37;;;;;;;1999.90;999.90;;;-0.60;99.90;;;;;;5062115;28;20446;-71
2022/03/05 04:27:04;;;;;;;1999.90;999.90;;;-0.10;99.90;;;;;;5064928;28;20504;-67
2022/03/05 04:29:31;;;;;;;1999.90;999.90;;;-0.20;99.90;;;;;;5063584;28;20450;-68
2022/03/05 04:31:58;;;;;;;1999.90;999.90;;;-0.60;99.90;;;;;;5065712;28;20868;-67
2022/03/05 04:34:25;;;;;;;1999.90;999.90;;;-0.60;99.90;;;;;;5064894;28;20533;-64
2022/03/05 04:36:53;;;;;;;1999.90;999.90;;;-0.70;99.90;;;;;;5063923;28;20442;-68
2022/03/05 04:39:20;;;;;;;1999.90;999.90;;;-0.60;99.90;;;;;;5064640;28;20461;-68
2022/03/05 04:41:46;;;;;;;1999.90;999.90;;;-0.50;99.90;;;;;;5064833;28;20446;-68
2022/03/05 04:44:13;;;;;;;1999.90;999.90;;;-0.60;99.90;;;;;;5064819;28;20499;-68
2022/03/05 04:46:40;;;;;;;1999.90;999.90;;;-0.20;99.90;;;;;;5063818;28;20481;-63
2022/03/05 04:49:06;;;;;;;1999.90;999.90;;;-0.60;99.90;;;;;;5064500;28;20446;-70
2022/03/05 04:51:33;;;;;;;1999.90;999.90;;;-0.20;99.90;;;;;;5064990;28;20477;-67
2022/03/05 04:54:01;;;;;;;1999.90;999.90;;;-0.70;99.90;;;;;;5064203;28;20845;-65
2022/03/05 04:56:28;;;;;;;1999.90;999.90;;;-0.70;99.90;;;;;;5064798;28;20465;-69
2022/03/05 04:58:55;;;;;;;1999.90;999.90;;;-0.70;99.90;;;;;;5064831;28;20453;-69
2022/03/05 05:01:21;;;;;;;1999.90;999.90;;;-0.30;99.90;;;;;;5065200;28;20446;-65
2022/03/05 05:03:48;;;;;;;1999.90;999.90;;;-0.70;99.90;;;;;;5064742;28;20461;-69
2022/03/05 05:06:15;;;;;;;1999.90;999.90;;;-0.70;99.90;;;;;;5064923;28;20478;-69
2022/03/05 05:08:42;;;;;;;1999.90;999.90;;;-0.70;99.90;;;;;;5066557;28;20458;-69
2022/03/05 05:11:10;;;;;;;1999.90;999.90;;;-0.70;99.90;;;;;;5064971;28;20458;-66
2022/03/05 05:13:38;;;;;;;1999.90;999.90;;;-0.80;99.90;;;;;;5064207;28;20862;-67
2022/03/05 05:16:05;;;;;;;1999.90;999.90;;;-0.20;99.90;;;;;;5064318;28;20535;-69
2022/03/05 05:18:32;;;;;;;1999.90;999.90;;;-0.90;99.90;;;;;;5064764;28;20450;-67
2022/03/05 05:20:59;;;;;;;1999.90;999.90;;;-0.90;99.90;;;;;;5062603;28;20519;-68
2022/03/05 05:23:26;;;;;;;1999.90;999.90;;;-0.90;99.90;;;;;;5063756;28;20542;-68
2022/03/05 05:25:53;;;;;;;1999.90;999.90;;;-1.00;99.90;;;;;;5062483;28;21038;-69
2022/03/05 05:28:21;;;;;;;1999.90;999.90;;;-0.90;99.90;;;;;;5063618;28;20458;-68
2022/03/05 05:30:48;;;;;;;1999.90;999.90;;;-0.90;99.90;;;;;;5065528;28;20501;-68
2022/03/05 05:33:15;;;;;;;1999.90;999.90;;;-0.90;99.90;;;;;;5064129;28;20450;-69
2022/03/05 05:35:41;;;;;;;1999.90;999.90;;;-0.90;99.90;;;;;;5063751;28;20474;-67
2022/03/05 05:38:08;;;;;;;1999.90;999.90;;;-1.00;99.90;;;;;;5063439;28;20541;-68
2022/03/05 05:40:35;;;;;;;1999.90;999.90;;;-0.90;99.90;;;;;;5063804;28;20515;-64
2022/03/05 05:43:02;;;;;;;1999.90;999.90;;;-1.00;99.90;;;;;;5063009;28;20456;-68
2022/03/05 05:45:30;;;;;;;1999.90;999.90;;;-1.00;99.90;;;;;;5062075;28;20494;-68
2022/03/05 05:47:58;;;;;;;1999.90;999.90;;;-1.10;99.90;;;;;;5072411;28;20449;-69
2022/03/05 05:50:24;;;;;;;1999.90;999.90;;;-1.10;99.90;;;;;;5076150;28;20533;-67
2022/03/05 05:52:51;;;;;;;1999.90;999.90;;;-1.10;99.90;;;;;;5062423;28;20454;-68
2022/03/05 05:55:18;;;;;;;1999.90;999.90;;;-1.20;99.90;;;;;;5056946;28;20462;-71
2022/03/05 05:57:44;;;;;;;1999.90;999.90;;;-1.20;99.90;;;;;;5069314;28;20450;-67
2022/03/05 06:00:12;;;;;;;1999.90;999.90;;;-0.70;99.90;;;;;;5069362;28;20454;-67
2022/03/05 06:02:40;;;;;;;1999.90;999.90;;;-1.20;99.90;;;;;;5062754;28;20455;-67
2022/03/05 06:05:08;;;;;;;1999.90;999.90;;;-0.80;99.90;;;;;;5062353;28;20473;-68
2022/03/05 06:07:34;;;;;;;1999.90;999.90;;;-1.10;99.90;;;;;;5059863;28;20458;-67
2022/03/05 06:10:01;;;;;;;1999.90;999.90;;;-1.10;99.90;;;;;;5057935;28;20481;-69
2022/03/05 06:12:28;;;;;;;1999.90;999.90;;;-1.00;99.90;;;;;;5056675;28;20450;-68
2022/03/05 06:14:54;;;;;;;1999.90;999.90;;;-1.00;99.90;;;;;;5057534;28;20462;-67
2022/03/05 06:17:21;;;;;;;1999.90;999.90;;;-1.00;99.90;;;;;;5056787;28;20930;-70
2022/03/05 06:19:49;;;;;;;1999.90;999.90;;;-0.90;99.90;;;;;;5057758;28;20472;-67
2022/03/05 06:22:16;;;;;;;1999.90;999.90;;;-0.90;99.90;;;;;;5073991;28;20453;-68
2022/03/05 06:24:42;;;;;;;1999.90;999.90;;;-1.00;99.90;;;;;;5073527;28;20442;-66
2022/03/05 06:27:09;;;;;;;1999.90;999.90;;;-0.90;99.90;;;;;;5074764;28;20477;-68
2022/03/05 06:29:36;;;;;;;1999.90;999.90;;;-0.90;99.90;;;;;;5073538;28;20808;-68
2022/03/05 06:32:03;;;;;;;1999.90;999.90;;;-0.90;99.90;;;;;;5058031;28;20451;-68
2022/03/05 06:34:31;;;;;;;1999.90;999.90;;;-0.90;99.90;;;;;;5065164;28;20451;-68
2022/03/05 06:37:00;;;;;;;1999.90;999.90;;;-0.80;99.90;;;;;;5060425;28;20450;-68
2022/03/05 06:39:27;;;;;;;1999.90;999.90;;;-0.80;99.90;;;;;;5066806;28;20532;-67
2022/03/05 06:41:53;;;;;;;1999.90;999.90;;;-0.70;99.90;;;;;;5073715;28;20445;-67
2022/03/05 06:44:20;;;;;;;1999.90;999.90;;;-0.60;99.90;;;;;;5069065;28;20450;-69
2022/03/05 06:46:47;;;;;;;1999.90;999.90;;;-0.50;99.90;;;;;;5070607;23;20505;-70
2022/03/05 06:49:13;;;;;;;1999.90;999.90;;;-0.50;99.90;;;;;;5048412;28;20466;-70
2022/03/05 06:51:40;;;;;;;1999.90;999.90;;;-0.60;99.90;;;;;;5048084;28;20496;-68
2022/03/05 06:54:08;;;;;;;1999.90;999.90;;;-0.10;99.90;;;;;;5047912;28;20447;-69
2022/03/05 06:56:34;;;;;;;1999.90;999.90;;;-0.40;99.90;;;;;;5048839;28;20928;-70
2022/03/05 06:59:01;;;;;;;1999.90;999.90;;;-0.40;99.90;;;;;;5048218;28;20871;-71
2022/03/05 07:01:28;;;;;;;1999.90;999.90;;;-0.30;99.90;;;;;;5048955;28;20504;-71
2022/03/05 07:03:54;;;;;;;1999.90;999.90;;;-0.20;99.90;;;;;;5048594;28;20454;-70
2022/03/05 07:06:21;;;;;;;1999.90;999.90;;;-0.10;99.90;;;;;;5049236;28;20527;-71
2022/03/05 07:08:48;;;;;;;1999.90;999.90;;;0.10;99.90;;;;;;5048938;28;21152;-71
2022/03/05 07:11:16;;;;;;;1999.90;999.90;;;0.10;99.90;;;;;;5049207;28;20861;-72
2022/03/05 07:13:42;;;;;;;1999.90;999.90;;;0.40;99.90;;;;;;5049414;28;20464;-71
2022/03/05 07:16:09;;;;;;;1999.90;999.90;;;0.50;99.90;;;;;;5047974;28;20474;-71
2022/03/05 07:18:36;;;;;;;1999.90;999.90;;;0.60;99.90;;;;;;5048605;28;20480;-71
2022/03/05 07:21:02;;;;;;;1999.90;999.90;;;0.70;99.90;;;;;;5048291;28;20516;-70
2022/03/05 07:23:29;;;;;;;1999.90;999.90;;;0.60;99.90;;;;;;5049048;28;21776;-68
2022/03/05 07:25:56;;;;;;;1999.90;999.90;;;0.60;99.90;;;;;;5045123;28;20843;-70
2022/03/05 07:28:24;;;;;;;1999.90;999.90;;;0.70;99.90;;;;;;5050153;28;20466;-71
2022/03/05 07:30:51;;;;;;;1999.90;999.90;;;0.80;99.90;;;;;;5046539;28;20804;-71
2022/03/05 07:33:18;;;;;;;1999.90;999.90;;;0.90;99.90;;;;;;5052224;28;20454;-70
2022/03/05 07:35:45;;;;;;;1999.90;999.90;;;1.00;99.90;;;;;;5051471;28;20466;-71
2022/03/05 07:38:11;;;;;;;1999.90;999.90;;;1.20;99.90;;;;;;5051681;28;20450;-71
2022/03/05 07:40:38;;;;;;;1999.90;999.90;;;1.30;99.90;;;;;;5051148;28;20960;-71
2022/03/05 07:43:05;;;;;;;1999.90;999.90;;;1.50;99.90;;;;;;5051731;28;20454;-71
2022/03/05 07:45:33;;;;;;;1999.90;999.90;;;1.60;99.90;;;;;;5054304;28;20600;-70
2022/03/05 07:47:59;;;;;;;1999.90;999.90;;;1.50;99.90;;;;;;5054910;28;21005;-71
2022/03/05 07:50:26;;;;;;;1999.90;999.90;;;1.60;99.90;;;;;;5054678;28;20450;-71
2022/03/05 07:52:53;;;;;;;1999.90;999.90;;;1.80;99.90;;;;;;5054837;28;20962;-71
2022/03/05 07:55:19;;;;;;;1999.90;999.90;;;1.90;99.90;;;;;;5052357;28;20516;-72
2022/03/05 07:57:46;;;;;;;1999.90;999.90;;;2.10;99.90;;;;;;5053074;28;20942;-71
2022/03/05 08:00:13;;;;;;;1999.90;999.90;;;2.40;99.90;;;;;;5052983;28;20462;-71
2022/03/05 08:02:41;;;;;;;1999.90;999.90;;;2.40;99.90;;;;;;5054726;28;20450;-72
2022/03/05 08:05:09;;;;;;;1999.90;999.90;;;2.50;99.90;;;;;;5054996;28;20446;-70
2022/03/05 08:07:36;;;;;;;1999.90;999.90;;;2.50;99.90;;;;;;5053781;28;20482;-68
2022/03/05 08:10:07;;;;;;;1999.90;999.90;;;2.60;99.90;;;;;;5053281;28;20446;-71
2022/03/05 08:12:34;;;;;;;1999.90;999.90;;;2.70;99.90;;;;;;5051677;28;20446;-71
2022/03/05 08:15:01;;;;;;;1999.90;999.90;;;2.80;99.90;;;;;;5047824;28;20869;-71
2022/03/05 08:17:27;;;;;;;1999.90;999.90;;;2.80;99.90;;;;;;5051489;28;20906;-71
2022/03/05 08:19:55;;;;;;;1999.90;999.90;;;2.90;99.90;;;;;;5054953;28;20507;-71
2022/03/05 08:22:22;;;;;;;1999.90;999.90;;;3.10;99.90;;;;;;5054441;28;20454;-71
2022/03/05 08:24:49;;;;;;;1999.90;999.90;;;3.40;99.90;;;;;;5053394;28;20442;-71
2022/03/05 08:27:16;;;;;;;1999.90;999.90;;;3.70;99.90;;;;;;5054295;28;20531;-72
2022/03/05 08:29:43;;;;;;;1999.90;999.90;;;4.00;99.90;;;;;;5054735;28;20458;-70
2022/03/05 08:32:10;;;;;;;1999.90;999.90;;;4.00;99.90;;;;;;5052690;28;20469;-70
2022/03/05 08:34:37;;;;;;;1999.90;999.90;;;3.80;99.90;;;;;;5053829;28;20879;-70
2022/03/05 08:37:05;;;;;;;1999.90;999.90;;;3.80;99.90;;;;;;5054534;28;20458;-70
2022/03/05 08:39:32;;;;;;;1999.90;999.90;;;3.90;99.90;;;;;;5053896;28;20515;-68
2022/03/05 08:41:59;;;;;;;1999.90;999.90;;;4.10;99.90;;;;;;5054048;28;20507;-69
2022/03/05 08:44:25;;;;;;;1999.90;999.90;;;4.30;99.90;;;;;;5054126;28;20492;-71
2022/03/05 08:46:52;;;;;;;1999.90;999.90;;;4.20;99.90;;;;;;5054073;28;20494;-71
2022/03/05 08:49:19;;;;;;;1999.90;999.90;;;4.40;99.90;;;;;;5050940;28;20451;-71
2022/03/05 08:51:45;;;;;;;1999.90;999.90;;;4.40;99.90;;;;;;5052691;28;20504;-71
2022/03/05 08:54:13;;;;;;;1999.90;999.90;;;4.60;99.90;;;;;;5054207;28;20454;-71
2022/03/05 08:56:40;;;;;;;1999.90;999.90;;;4.30;99.90;;;;;;5058429;28;20466;-70
2022/03/05 08:59:06;;;;;;;1999.90;999.90;;;4.50;99.90;;;;;;5061846;28;20474;-71
2022/03/05 09:01:33;;;;;;;1999.90;999.90;;;4.60;99.90;;;;;;5063058;28;20504;-71
2022/03/05 09:04:00;;;;;;;1999.90;999.90;;;4.80;99.90;;;;;;5051206;28;20501;-71
2022/03/05 09:06:27;;;;;;;1999.90;999.90;;;5.00;99.90;;;;;;5054146;28;20981;-72
2022/03/05 09:08:53;;;;;;;1999.90;999.90;;;4.90;99.90;;;;;;5056625;28;20450;-70
2022/03/05 09:11:21;;;;;;;1999.90;999.90;;;5.20;99.90;;;;;;5056840;28;20446;-71
2022/03/05 09:13:48;;;;;;;1999.90;999.90;;;5.40;99.90;;;;;;5057671;28;20507;-71
2022/03/05 09:16:15;;;;;;;1999.90;999.90;;;5.50;99.90;;;;;;5057043;28;20466;-70
2022/03/05 09:18:42;;;;;;;1999.90;999.90;;;5.50;99.90;;;;;;5055795;28;20443;-70
2022/03/05 09:21:08;;;;;;;1999.90;999.90;;;5.50;99.90;;;;;;5036456;28;20939;-71
2022/03/05 09:23:35;;;;;;;1999.90;999.90;;;5.70;99.90;;;;;;5053715;28;20447;-72
2022/03/05 09:26:02;;;;;;;1999.90;999.90;;;5.50;99.90;;;;;;5056701;28;20974;-72
2022/03/05 09:28:30;;;;;;;1999.90;999.90;;;5.50;99.90;;;;;;5057328;28;20450;-70
2022/03/05 09:30:58;;;;;;;1999.90;999.90;;;5.50;99.90;;;;;;5057171;28;20495;-71
2022/03/05 09:33:25;;;;;;;1999.90;999.90;;;5.60;99.90;;;;;;5053073;28;20455;-71
2022/03/05 09:35:51;;;;;;;1999.90;999.90;;;5.60;99.90;;;;;;5037686;28;20462;-71
2022/03/05 09:38:19;;;;;;;1999.90;999.90;;;5.60;99.90;;;;;;5047025;28;20447;-72
2022/03/05 09:40:46;;;;;;;1999.90;999.90;;;5.20;99.90;;;;;;5054308;28;20454;-69
2022/03/05 09:43:13;;;;;;;1999.90;999.90;;;5.30;99.90;;;;;;5055018;28;20450;-70
2022/03/05 09:45:45;;;;;;;1999.90;999.90;;;5.10;99.90;;;;;;5054741;28;20485;-71
2022/03/05 09:48:13;;;;;;;1999.90;999.90;;;5.00;99.90;;;;;;5048987;28;20540;-70
2022/03/05 09:50:40;;;;;;;1999.90;999.90;;;4.90;99.90;;;;;;5035698;28;20967;-71
2022/03/05 09:53:06;;;;;;;1999.90;999.90;;;4.90;99.90;;;;;;5034539;28;20502;-68
2022/03/05 09:55:33;;;;;;;1999.90;999.90;;;4.90;99.90;;;;;;5036567;28;20529;-71
2022/03/05 09:58:00;;;;;;;1999.90;999.90;;;5.00;99.90;;;;;;5037077;28;20505;-71
2022/03/05 10:00:27;;;;;;;1999.90;999.90;;;5.10;99.90;;;;;;5041001;28;20504;-69
2022/03/05 10:02:56;;;;;;;1999.90;999.90;;;5.20;99.90;;;;;;5046417;28;20497;-71
2022/03/05 10:05:26;;;;;;;1999.90;999.90;;;5.20;99.90;;;;;;5050339;28;20466;-71
2022/03/05 10:08:08;;;;;;;1999.90;999.90;;;5.10;99.90;;;;;;5052998;28;20605;-71
2022/03/05 10:10:47;;;;;;;1999.90;999.90;;;5.10;99.90;;;;;;5052198;28;20470;-69
2022/03/05 10:13:19;;;;;;;1999.90;999.90;;;5.10;99.90;;;;;;5046541;28;20442;-72
2022/03/05 10:15:46;;;;;;;1999.90;999.90;;;4.90;99.90;;;;;;5051612;28;20525;-73
2022/03/05 10:18:14;;;;;;;1999.90;999.90;;;5.10;99.90;;;;;;5052301;28;20443;-72
2022/03/05 10:20:45;;;;;;;1999.90;999.90;;;5.30;99.90;;;;;;5053194;28;20450;-70
2022/03/05 10:23:12;;;;;;;1999.90;999.90;;;5.30;99.90;;;;;;5051979;28;20446;-69
2022/03/05 10:25:41;;;;;;;1999.90;999.90;;;5.30;99.90;;;;;;5046237;28;20478;-71
2022/03/05 10:28:11;;;;;;;1999.90;999.90;;;5.30;99.90;;;;;;5052805;28;20478;-71
2022/03/05 10:30:40;;;;;;;1999.90;999.90;;;5.30;99.90;;;;;;5054540;28;20826;-70
2022/03/05 10:33:07;;;;;;;1999.90;999.90;;;5.30;99.90;;;;;;5054950;28;20894;-72
2022/03/05 10:35:36;;;;;;;1999.90;999.90;;;5.30;99.90;;;;;;5054020;28;20561;-72
2022/03/05 10:38:03;;;;;;;1999.90;999.90;;;5.20;99.90;;;;;;5053308;28;20469;-70
2022/03/05 10:40:31;;;;;;;1999.90;999.90;;;5.10;99.90;;;;;;5052693;28;20512;-72
2022/03/05 10:43:03;;;;;;;1999.90;999.90;;;5.10;99.90;;;;;;5053153;28;20443;-71
2022/03/05 10:45:30;;;;;;;1999.90;999.90;;;5.10;99.90;;;;;;5053093;28;20500;-71
2022/03/05 10:47:59;;;;;;;1999.90;999.90;;;5.00;99.90;;;;;;5050838;28;20482;-71
2022/03/05 10:50:27;;;;;;;1999.90;999.90;;;4.90;99.90;;;;;;5053632;28;21049;-67
2022/03/05 10:52:57;;;;;;;1999.90;999.90;;;5.10;99.90;;;;;;5054675;28;20457;-70
2022/03/05 10:55:25;;;;;;;1999.90;999.90;;;5.10;99.90;;;;;;5054317;28;21000;-69
2022/03/05 10:58:04;;;;;;;1999.90;999.90;;;5.10;99.90;;;;;;5054177;28;20871;-70
2022/03/05 11:00:31;;;;;;;1999.90;999.90;;;5.10;99.90;;;;;;5049137;28;20450;-70
2022/03/05 11:03:02;;;;;;;1999.90;999.90;;;5.10;99.90;;;;;;5034537;28;20457;-73
2022/03/05 11:05:29;;;;;;;1999.90;999.90;;;5.10;99.90;;;;;;5034273;28;20998;-71
2022/03/05 11:07:57;;;;;;;1999.90;999.90;;;5.20;99.90;;;;;;5035623;28;20479;-71
2022/03/05 11:10:27;;;;;;;1999.90;999.90;;;5.30;99.90;;;;;;5035817;28;20451;-70
2022/03/05 11:12:56;;;;;;;1999.90;999.90;;;5.50;99.90;;;;;;5035550;28;20431;-71
2022/03/05 11:15:24;;;;;;;1999.90;999.90;;;5.60;99.90;;;;;;5039648;28;21012;-70
2022/03/05 11:17:50;;;;;;;1999.90;999.90;;;5.60;99.90;;;;;;5054692;28;20442;-68
2022/03/05 11:20:17;;;;;;;1999.90;999.90;;;5.60;99.90;;;;;;5058897;28;20496;-70
2022/03/05 11:22:49;;;;;;;1999.90;999.90;;;5.50;99.90;;;;;;5059203;28;20824;-71
2022/03/05 11:25:19;;;;;;;1999.90;999.90;;;5.60;99.90;;;;;;5058904;28;20824;-71
2022/03/05 11:27:55;;;;;;;1999.90;999.90;;;5.50;99.90;;;;;;5058605;28;20569;-72
2022/03/05 11:30:22;;;;;;;1999.90;999.90;;;5.50;99.90;;;;;;5047996;28;20439;-70
2022/03/05 11:32:48;;;;;;;1999.90;999.90;;;5.70;99.90;;;;;;5039677;28;20449;-72
2022/03/05 11:35:20;;;;;;;1999.90;999.90;;;5.60;99.90;;;;;;5039249;28;20467;-71
2022/03/05 11:37:50;;;;;;;1999.90;999.90;;;5.60;99.90;;;;;;5038920;28;20447;-70
2022/03/05 11:40:39;;;;;;;1999.90;999.90;;;5.60;99.90;;;;;;5038485;28;20497;-71
2022/03/05 11:43:20;;;;;;;1999.90;999.90;;;5.60;99.90;;;;;;5039792;28;20477;-70
2022/03/05 11:45:56;;;;;;;1999.90;999.90;;;5.70;99.90;;;;;;5053386;28;20985;-71
2022/03/05 11:48:30;;;;;;;1999.90;999.90;;;5.60;99.90;;;;;;5050311;28;20544;-71
2022/03/05 11:50:59;;;;;;;1999.90;999.90;;;5.60;99.90;;;;;;5039070;28;20438;-71
2022/03/05 11:53:26;;;;;;;1999.90;999.90;;;5.60;99.90;;;;;;5047876;28;20980;-71
2022/03/05 11:55:55;;;;;;;1999.90;999.90;;;5.70;99.90;;;;;;5059138;28;20470;-70
2022/03/05 11:58:40;;;;;;;1999.90;999.90;;;5.60;99.90;;;;;;5058073;28;20486;-72
2022/03/05 12:01:46;;;;;;;1999.90;999.90;;;5.60;99.90;;;;;;5057024;28;20434;-71
2022/03/05 12:04:23;;;;;;;1999.90;999.90;;;5.50;99.90;;;;;;5051346;28;20454;-70
2022/03/05 12:06:53;;;;;;;1999.90;999.90;;;5.50;99.90;;;;;;5059496;28;20453;-71
2022/03/05 12:09:35;;;;;;;1999.90;999.90;;;5.60;99.90;;;;;;5058861;28;20473;-70
2022/03/05 12:12:04;;;;;;;1999.90;999.90;;;5.70;99.90;;;;;;5053680;28;20464;-71